Terminal Aerodrome Forecast
Issued by NWS Greer, SC

Home | Current Version | Previous Version | Text Only | Print | Product List | Glossary On
Versions: 1 2 3 4 5 6 7 8 9 10 11 12 13 14 15 16 17 18 19 20 21
000
FTUS42 KGSP 282336
TAFCLT
TAF
KCLT 282336Z 2900/2924 12007KT P6SM FEW070 SCT150 OVC250
     FM290400 06005KT P6SM FEW025 BKN070
      TEMPO 2904/2907 4SM -SHRA OVC025
     FM290700 02004KT P6SM -RA OVC015
     FM291400 35008KT 6SM -RA OVC020
     FM291800 35009KT P6SM VCSH OVC035=

USA.gov is the U.S. government's official web portal to all federal, state and local government web resources and services.